sensor_id;sensor_type;location;lat;lon;timestamp;temperature;humidity
11497;DHT22;5805;51.542;7.230;2023-04-15T00:01:57;10.50;99.90
11497;DHT22;5805;51.542;7.230;2023-04-15T00:04:23;10.50;99.90
11497;DHT22;5805;51.542;7.230;2023-04-15T00:06:49;10.50;99.90
11497;DHT22;5805;51.542;7.230;2023-04-15T00:09:15;10.50;99.90
11497;DHT22;5805;51.542;7.230;2023-04-15T00:11:42;10.40;99.90
11497;DHT22;5805;51.542;7.230;2023-04-15T00:14:08;10.80;99.90
11497;DHT22;5805;51.542;7.230;2023-04-15T00:16:33;10.40;99.90
11497;DHT22;5805;51.542;7.230;2023-04-15T00:18:59;10.40;99.90
11497;DHT22;5805;51.542;7.230;2023-04-15T00:21:25;10.30;99.90
11497;DHT22;5805;51.542;7.230;2023-04-15T00:23:50;10.20;99.90
11497;DHT22;5805;51.542;7.230;2023-04-15T00:26:16;10.20;99.90
11497;DHT22;5805;51.542;7.230;2023-04-15T00:28:43;10.20;99.90
11497;DHT22;5805;51.542;7.230;2023-04-15T00:31:09;10.10;99.90
11497;DHT22;5805;51.542;7.230;2023-04-15T00:33:35;10.00;99.90
11497;DHT22;5805;51.542;7.230;2023-04-15T00:36:00;9.90;99.90
11497;DHT22;5805;51.542;7.230;2023-04-15T00:38:26;9.90;99.90
11497;DHT22;5805;51.542;7.230;2023-04-15T00:40:52;9.90;99.90
11497;DHT22;5805;51.542;7.230;2023-04-15T00:43:17;9.90;99.90
11497;DHT22;5805;51.542;7.230;2023-04-15T00:45:45;10.00;99.90
11497;DHT22;5805;51.542;7.230;2023-04-15T00:48:11;10.40;99.90
11497;DHT22;5805;51.542;7.230;2023-04-15T00:50:37;10.00;99.90
11497;DHT22;5805;51.542;7.230;2023-04-15T00:53:02;10.00;99.90
11497;DHT22;5805;51.542;7.230;2023-04-15T00:55:28;10.30;99.90
11497;DHT22;5805;51.542;7.230;2023-04-15T00:57:55;9.80;99.90
11497;DHT22;5805;51.542;7.230;2023-04-15T01:00:21;9.80;99.90
11497;DHT22;5805;51.542;7.230;2023-04-15T01:02:49;9.80;99.90
11497;DHT22;5805;51.542;7.230;2023-04-15T01:05:16;9.90;99.90
11497;DHT22;5805;51.542;7.230;2023-04-15T01:07:41;10.20;99.90
11497;DHT22;5805;51.542;7.230;2023-04-15T01:10:08;9.70;99.90
11497;DHT22;5805;51.542;7.230;2023-04-15T01:12:34;9.70;99.90
11497;DHT22;5805;51.542;7.230;2023-04-15T01:15:00;9.70;99.90
11497;DHT22;5805;51.542;7.230;2023-04-15T01:17:26;9.80;99.90
11497;DHT22;5805;51.542;7.230;2023-04-15T01:19:55;9.70;99.90
11497;DHT22;5805;51.542;7.230;2023-04-15T01:22:20;9.60;99.90
11497;DHT22;5805;51.542;7.230;2023-04-15T01:24:53;9.70;99.90
11497;DHT22;5805;51.542;7.230;2023-04-15T01:27:21;9.60;99.90
11497;DHT22;5805;51.542;7.230;2023-04-15T01:29:46;9.60;99.90
11497;DHT22;5805;51.542;7.230;2023-04-15T01:32:12;9.60;99.90
11497;DHT22;5805;51.542;7.230;2023-04-15T01:34:38;9.50;99.90
11497;DHT22;5805;51.542;7.230;2023-04-15T01:37:03;9.60;99.90
11497;DHT22;5805;51.542;7.230;2023-04-15T01:39:29;9.60;99.90
11497;DHT22;5805;51.542;7.230;2023-04-15T01:41:55;9.60;99.90
11497;DHT22;5805;51.542;7.230;2023-04-15T01:44:22;9.60;99.90
11497;DHT22;5805;51.542;7.230;2023-04-15T01:46:47;9.60;99.90
11497;DHT22;5805;51.542;7.230;2023-04-15T01:49:13;9.60;99.90
11497;DHT22;5805;51.542;7.230;2023-04-15T01:51:39;9.50;99.90
11497;DHT22;5805;51.542;7.230;2023-04-15T01:54:04;9.60;99.90
11497;DHT22;5805;51.542;7.230;2023-04-15T01:56:30;9.80;99.90
11497;DHT22;5805;51.542;7.230;2023-04-15T01:58:56;9.60;99.90
11497;DHT22;5805;51.542;7.230;2023-04-15T02:01:23;9.60;99.90
11497;DHT22;5805;51.542;7.230;2023-04-15T02:03:49;9.60;99.90
11497;DHT22;5805;51.542;7.230;2023-04-15T02:06:14;9.60;99.90
11497;DHT22;5805;51.542;7.230;2023-04-15T02:08:40;9.60;99.90
11497;DHT22;5805;51.542;7.230;2023-04-15T02:11:06;9.50;99.90
11497;DHT22;5805;51.542;7.230;2023-04-15T02:13:31;9.50;99.90
11497;DHT22;5805;51.542;7.230;2023-04-15T02:15:58;9.40;99.90
11497;DHT22;5805;51.542;7.230;2023-04-15T02:18:25;9.30;99.90
11497;DHT22;5805;51.542;7.230;2023-04-15T02:20:51;9.30;99.90
11497;DHT22;5805;51.542;7.230;2023-04-15T02:23:17;9.30;99.90
11497;DHT22;5805;51.542;7.230;2023-04-15T02:25:42;9.30;99.90
11497;DHT22;5805;51.542;7.230;2023-04-15T02:28:08;9.30;99.90
11497;DHT22;5805;51.542;7.230;2023-04-15T02:30:34;9.30;99.90
11497;DHT22;5805;51.542;7.230;2023-04-15T02:32:59;9.20;99.90
11497;DHT22;5805;51.542;7.230;2023-04-15T02:35:26;9.20;99.90
11497;DHT22;5805;51.542;7.230;2023-04-15T02:37:52;9.10;99.90
11497;DHT22;5805;51.542;7.230;2023-04-15T02:40:18;9.10;99.90
11497;DHT22;5805;51.542;7.230;2023-04-15T02:42:44;9.10;99.90
11497;DHT22;5805;51.542;7.230;2023-04-15T02:45:10;9.80;99.90
11497;DHT22;5805;51.542;7.230;2023-04-15T02:47:36;9.10;99.90
11497;DHT22;5805;51.542;7.230;2023-04-15T02:50:02;9.10;99.90
11497;DHT22;5805;51.542;7.230;2023-04-15T02:52:29;9.10;99.90
11497;DHT22;5805;51.542;7.230;2023-04-15T02:54:55;9.00;99.90
11497;DHT22;5805;51.542;7.230;2023-04-15T02:57:21;9.40;99.90
11497;DHT22;5805;51.542;7.230;2023-04-15T02:59:47;9.00;99.90
11497;DHT22;5805;51.542;7.230;2023-04-15T03:02:12;9.00;99.90
11497;DHT22;5805;51.542;7.230;2023-04-15T03:04:38;9.00;99.90
11497;DHT22;5805;51.542;7.230;2023-04-15T03:07:04;9.00;99.90
11497;DHT22;5805;51.542;7.230;2023-04-15T03:09:31;9.00;99.90
11497;DHT22;5805;51.542;7.230;2023-04-15T03:11:57;9.00;99.90
11497;DHT22;5805;51.542;7.230;2023-04-15T03:14:22;8.90;99.90
11497;DHT22;5805;51.542;7.230;2023-04-15T03:16:48;8.90;99.90
11497;DHT22;5805;51.542;7.230;2023-04-15T03:19:14;8.90;99.90
11497;DHT22;5805;51.542;7.230;2023-04-15T03:21:39;8.90;99.90
11497;DHT22;5805;51.542;7.230;2023-04-15T03:24:05;8.90;99.90
11497;DHT22;5805;51.542;7.230;2023-04-15T03:26:32;8.80;99.90
11497;DHT22;5805;51.542;7.230;2023-04-15T03:28:58;8.70;99.90
11497;DHT22;5805;51.542;7.230;2023-04-15T03:31:24;8.70;99.90
11497;DHT22;5805;51.542;7.230;2023-04-15T03:33:49;8.60;99.90
11497;DHT22;5805;51.542;7.230;2023-04-15T03:36:15;8.60;99.90
11497;DHT22;5805;51.542;7.230;2023-04-15T03:38:41;8.50;99.90
11497;DHT22;5805;51.542;7.230;2023-04-15T03:41:06;8.60;99.90
11497;DHT22;5805;51.542;7.230;2023-04-15T03:43:34;8.60;99.90
11497;DHT22;5805;51.542;7.230;2023-04-15T03:45:59;8.80;99.90
11497;DHT22;5805;51.542;7.230;2023-04-15T03:48:25;8.40;99.90
11497;DHT22;5805;51.542;7.230;2023-04-15T03:50:50;8.40;99.90
11497;DHT22;5805;51.542;7.230;2023-04-15T03:53:16;8.40;99.90
11497;DHT22;5805;51.542;7.230;2023-04-15T03:55:42;8.40;99.90
11497;DHT22;5805;51.542;7.230;2023-04-15T03:58:10;8.40;99.90
11497;DHT22;5805;51.542;7.230;2023-04-15T04:00:37;8.30;99.90
11497;DHT22;5805;51.542;7.230;2023-04-15T04:03:03;8.30;99.90
11497;DHT22;5805;51.542;7.230;2023-04-15T04:05:29;8.50;99.90
11497;DHT22;5805;51.542;7.230;2023-04-15T04:07:55;8.40;99.90
11497;DHT22;5805;51.542;7.230;2023-04-15T04:10:20;8.30;99.90
11497;DHT22;5805;51.542;7.230;2023-04-15T04:12:46;8.30;99.90
11497;DHT22;5805;51.542;7.230;2023-04-15T04:15:12;8.20;99.90
11497;DHT22;5805;51.542;7.230;2023-04-15T04:17:39;8.10;99.90
11497;DHT22;5805;51.542;7.230;2023-04-15T04:20:06;8.20;99.90
11497;DHT22;5805;51.542;7.230;2023-04-15T04:22:36;8.20;99.90
11497;DHT22;5805;51.542;7.230;2023-04-15T04:25:02;8.20;99.90
11497;DHT22;5805;51.542;7.230;2023-04-15T04:27:28;8.20;99.90
11497;DHT22;5805;51.542;7.230;2023-04-15T04:29:53;8.10;99.90
11497;DHT22;5805;51.542;7.230;2023-04-15T04:32:19;8.10;99.90
11497;DHT22;5805;51.542;7.230;2023-04-15T04:34:46;8.20;99.90
11497;DHT22;5805;51.542;7.230;2023-04-15T04:37:12;8.10;99.90
11497;DHT22;5805;51.542;7.230;2023-04-15T04:39:38;8.20;99.90
11497;DHT22;5805;51.542;7.230;2023-04-15T04:42:04;8.20;99.90
11497;DHT22;5805;51.542;7.230;2023-04-15T04:44:29;8.20;99.90
11497;DHT22;5805;51.542;7.230;2023-04-15T04:46:55;8.20;99.90
11497;DHT22;5805;51.542;7.230;2023-04-15T04:49:21;8.20;99.90
11497;DHT22;5805;51.542;7.230;2023-04-15T04:51:48;8.20;99.90
11497;DHT22;5805;51.542;7.230;2023-04-15T04:54:14;8.20;99.90
11497;DHT22;5805;51.542;7.230;2023-04-15T04:56:39;8.20;99.90
11497;DHT22;5805;51.542;7.230;2023-04-15T04:59:05;8.20;99.90
11497;DHT22;5805;51.542;7.230;2023-04-15T05:01:31;8.80;99.90
11497;DHT22;5805;51.542;7.230;2023-04-15T05:03:56;8.20;99.90
11497;DHT22;5805;51.542;7.230;2023-04-15T05:06:22;8.20;99.90
11497;DHT22;5805;51.542;7.230;2023-04-15T05:08:49;8.30;99.90
11497;DHT22;5805;51.542;7.230;2023-04-15T05:11:15;8.30;99.90
11497;DHT22;5805;51.542;7.230;2023-04-15T05:13:40;8.40;99.90
11497;DHT22;5805;51.542;7.230;2023-04-15T05:16:06;8.50;99.90
11497;DHT22;5805;51.542;7.230;2023-04-15T05:18:32;8.50;99.90
11497;DHT22;5805;51.542;7.230;2023-04-15T05:20:58;8.60;99.90
11497;DHT22;5805;51.542;7.230;2023-04-15T05:23:24;8.70;99.90
11497;DHT22;5805;51.542;7.230;2023-04-15T05:25:51;8.70;99.90
11497;DHT22;5805;51.542;7.230;2023-04-15T05:28:17;8.90;99.90
11497;DHT22;5805;51.542;7.230;2023-04-15T05:30:43;9.60;99.90
11497;DHT22;5805;51.542;7.230;2023-04-15T05:33:08;9.00;99.90
11497;DHT22;5805;51.542;7.230;2023-04-15T05:35:34;9.10;99.90
11497;DHT22;5805;51.542;7.230;2023-04-15T05:38:00;9.00;99.90
11497;DHT22;5805;51.542;7.230;2023-04-15T05:40:25;9.00;99.90
11497;DHT22;5805;51.542;7.230;2023-04-15T05:42:53;9.10;99.90
11497;DHT22;5805;51.542;7.230;2023-04-15T05:45:18;9.40;99.90
11497;DHT22;5805;51.542;7.230;2023-04-15T05:47:44;9.30;99.90
11497;DHT22;5805;51.542;7.230;2023-04-15T05:50:10;9.30;99.90
11497;DHT22;5805;51.542;7.230;2023-04-15T05:52:36;9.40;99.90
11497;DHT22;5805;51.542;7.230;2023-04-15T05:55:01;9.40;99.90
11497;DHT22;5805;51.542;7.230;2023-04-15T05:57:27;9.50;99.90
11497;DHT22;5805;51.542;7.230;2023-04-15T05:59:54;9.50;99.90
11497;DHT22;5805;51.542;7.230;2023-04-15T06:02:20;9.60;99.90
11497;DHT22;5805;51.542;7.230;2023-04-15T06:04:45;9.70;99.90
11497;DHT22;5805;51.542;7.230;2023-04-15T06:07:11;9.80;99.90
11497;DHT22;5805;51.542;7.230;2023-04-15T06:09:37;9.90;99.90
11497;DHT22;5805;51.542;7.230;2023-04-15T06:12:02;10.00;99.90
11497;DHT22;5805;51.542;7.230;2023-04-15T06:14:28;10.00;99.90
11497;DHT22;5805;51.542;7.230;2023-04-15T06:16:55;10.10;99.90
11497;DHT22;5805;51.542;7.230;2023-04-15T06:19:21;10.40;99.90
11497;DHT22;5805;51.542;7.230;2023-04-15T06:21:46;10.40;99.90
11497;DHT22;5805;51.542;7.230;2023-04-15T06:24:12;10.50;99.90
11497;DHT22;5805;51.542;7.230;2023-04-15T06:26:38;10.70;99.90
11497;DHT22;5805;51.542;7.230;2023-04-15T06:29:03;10.70;99.90
11497;DHT22;5805;51.542;7.230;2023-04-15T06:31:29;10.70;99.90
11497;DHT22;5805;51.542;7.230;2023-04-15T06:33:56;10.70;99.90
11497;DHT22;5805;51.542;7.230;2023-04-15T06:36:22;10.70;99.90
11497;DHT22;5805;51.542;7.230;2023-04-15T06:38:48;10.90;99.90
11497;DHT22;5805;51.542;7.230;2023-04-15T06:41:13;10.80;99.90
11497;DHT22;5805;51.542;7.230;2023-04-15T06:43:39;10.70;99.90
11497;DHT22;5805;51.542;7.230;2023-04-15T06:46:05;10.50;99.90
11497;DHT22;5805;51.542;7.230;2023-04-15T06:48:30;10.30;99.90
11497;DHT22;5805;51.542;7.230;2023-04-15T06:50:57;10.40;99.90
11497;DHT22;5805;51.542;7.230;2023-04-15T06:53:23;10.40;99.90
11497;DHT22;5805;51.542;7.230;2023-04-15T06:55:49;10.50;99.90
11497;DHT22;5805;51.542;7.230;2023-04-15T06:58:15;10.70;99.90
11497;DHT22;5805;51.542;7.230;2023-04-15T07:00:41;10.90;99.90
11497;DHT22;5805;51.542;7.230;2023-04-15T07:03:06;11.20;99.90
11497;DHT22;5805;51.542;7.230;2023-04-15T07:05:32;11.40;99.90
11497;DHT22;5805;51.542;7.230;2023-04-15T07:07:59;11.60;99.90
11497;DHT22;5805;51.542;7.230;2023-04-15T07:10:25;11.80;99.90
11497;DHT22;5805;51.542;7.230;2023-04-15T07:12:50;11.90;99.90
11497;DHT22;5805;51.542;7.230;2023-04-15T07:15:16;11.80;99.90
11497;DHT22;5805;51.542;7.230;2023-04-15T07:17:42;11.80;99.90
11497;DHT22;5805;51.542;7.230;2023-04-15T07:20:08;11.90;99.90
11497;DHT22;5805;51.542;7.230;2023-04-15T07:22:34;12.10;99.90
11497;DHT22;5805;51.542;7.230;2023-04-15T07:25:01;12.10;99.90
11497;DHT22;5805;51.542;7.230;2023-04-15T07:27:26;12.30;99.90
11497;DHT22;5805;51.542;7.230;2023-04-15T07:29:52;12.60;99.90
11497;DHT22;5805;51.542;7.230;2023-04-15T07:32:18;12.50;99.90
11497;DHT22;5805;51.542;7.230;2023-04-15T07:34:44;12.60;99.90
11497;DHT22;5805;51.542;7.230;2023-04-15T07:37:10;12.40;99.90
11497;DHT22;5805;51.542;7.230;2023-04-15T07:39:35;12.30;99.90
11497;DHT22;5805;51.542;7.230;2023-04-15T07:42:02;12.30;99.90
11497;DHT22;5805;51.542;7.230;2023-04-15T07:44:28;12.20;99.90
11497;DHT22;5805;51.542;7.230;2023-04-15T07:46:54;12.40;99.90
11497;DHT22;5805;51.542;7.230;2023-04-15T07:49:20;12.40;99.90
11497;DHT22;5805;51.542;7.230;2023-04-15T07:51:46;12.40;99.90
11497;DHT22;5805;51.542;7.230;2023-04-15T07:54:11;12.40;99.90
11497;DHT22;5805;51.542;7.230;2023-04-15T07:56:37;12.20;99.90
11497;DHT22;5805;51.542;7.230;2023-04-15T07:59:04;12.20;99.90
11497;DHT22;5805;51.542;7.230;2023-04-15T08:01:30;12.40;99.90
11497;DHT22;5805;51.542;7.230;2023-04-15T08:03:55;12.40;99.90
11497;DHT22;5805;51.542;7.230;2023-04-15T08:06:21;12.30;99.90
11497;DHT22;5805;51.542;7.230;2023-04-15T08:08:47;12.30;99.90
11497;DHT22;5805;51.542;7.230;2023-04-15T08:11:13;12.30;99.90
11497;DHT22;5805;51.542;7.230;2023-04-15T08:13:39;12.50;99.90
11497;DHT22;5805;51.542;7.230;2023-04-15T08:16:20;12.00;99.90
11497;DHT22;5805;51.542;7.230;2023-04-15T08:18:46;12.30;99.90
11497;DHT22;5805;51.542;7.230;2023-04-15T08:21:12;12.60;99.90
11497;DHT22;5805;51.542;7.230;2023-04-15T08:23:37;12.90;99.90
11497;DHT22;5805;51.542;7.230;2023-04-15T08:26:03;13.30;99.90
11497;DHT22;5805;51.542;7.230;2023-04-15T08:28:29;13.30;99.90
11497;DHT22;5805;51.542;7.230;2023-04-15T08:30:54;13.10;99.90
11497;DHT22;5805;51.542;7.230;2023-04-15T08:33:21;13.00;99.90
11497;DHT22;5805;51.542;7.230;2023-04-15T08:35:48;13.00;99.90
11497;DHT22;5805;51.542;7.230;2023-04-15T08:38:13;13.20;99.90
11497;DHT22;5805;51.542;7.230;2023-04-15T08:40:40;13.20;99.90
11497;DHT22;5805;51.542;7.230;2023-04-15T08:43:09;13.30;99.90
11497;DHT22;5805;51.542;7.230;2023-04-15T08:45:37;13.40;99.90
11497;DHT22;5805;51.542;7.230;2023-04-15T08:48:04;13.50;99.90
11497;DHT22;5805;51.542;7.230;2023-04-15T08:50:32;13.60;99.90
11497;DHT22;5805;51.542;7.230;2023-04-15T08:52:58;13.40;99.90
11497;DHT22;5805;51.542;7.230;2023-04-15T08:55:25;13.60;99.90
11497;DHT22;5805;51.542;7.230;2023-04-15T08:57:55;13.60;99.90
11497;DHT22;5805;51.542;7.230;2023-04-15T09:00:21;13.80;99.90
11497;DHT22;5805;51.542;7.230;2023-04-15T09:02:47;14.30;99.90
11497;DHT22;5805;51.542;7.230;2023-04-15T09:05:13;14.60;99.90
11497;DHT22;5805;51.542;7.230;2023-04-15T09:07:40;14.70;99.90
11497;DHT22;5805;51.542;7.230;2023-04-15T09:10:07;14.60;99.80
11497;DHT22;5805;51.542;7.230;2023-04-15T09:12:34;14.10;99.90
11497;DHT22;5805;51.542;7.230;2023-04-15T09:14:59;14.00;99.90
11497;DHT22;5805;51.542;7.230;2023-04-15T09:17:25;13.90;99.90
11497;DHT22;5805;51.542;7.230;2023-04-15T09:20:07;13.90;99.90
11497;DHT22;5805;51.542;7.230;2023-04-15T09:22:33;13.80;99.90
11497;DHT22;5805;51.542;7.230;2023-04-15T09:25:00;13.60;99.90
11497;DHT22;5805;51.542;7.230;2023-04-15T09:27:25;13.50;99.90
11497;DHT22;5805;51.542;7.230;2023-04-15T09:29:52;13.40;99.90
11497;DHT22;5805;51.542;7.230;2023-04-15T09:32:18;13.30;99.90
11497;DHT22;5805;51.542;7.230;2023-04-15T09:34:44;13.00;99.90
11497;DHT22;5805;51.542;7.230;2023-04-15T09:37:10;12.80;99.90
11497;DHT22;5805;51.542;7.230;2023-04-15T09:39:47;12.60;99.90
11497;DHT22;5805;51.542;7.230;2023-04-15T09:42:14;12.50;99.90
11497;DHT22;5805;51.542;7.230;2023-04-15T09:44:40;12.90;99.90
11497;DHT22;5805;51.542;7.230;2023-04-15T09:47:06;12.90;99.90
11497;DHT22;5805;51.542;7.230;2023-04-15T09:49:32;13.10;99.90
11497;DHT22;5805;51.542;7.230;2023-04-15T09:51:59;13.50;99.90
11497;DHT22;5805;51.542;7.230;2023-04-15T09:54:36;13.60;99.90
11497;DHT22;5805;51.542;7.230;2023-04-15T09:57:05;13.50;99.90
11497;DHT22;5805;51.542;7.230;2023-04-15T09:59:32;13.50;99.90
11497;DHT22;5805;51.542;7.230;2023-04-15T10:01:58;13.60;99.90
11497;DHT22;5805;51.542;7.230;2023-04-15T10:04:26;13.80;99.90
11497;DHT22;5805;51.542;7.230;2023-04-15T10:06:52;13.70;99.90
11497;DHT22;5805;51.542;7.230;2023-04-15T10:09:18;13.40;99.90
11497;DHT22;5805;51.542;7.230;2023-04-15T10:11:45;13.50;99.90
11497;DHT22;5805;51.542;7.230;2023-04-15T10:14:13;13.60;99.90
11497;DHT22;5805;51.542;7.230;2023-04-15T10:16:45;13.70;99.90
11497;DHT22;5805;51.542;7.230;2023-04-15T10:19:12;13.70;99.90
11497;DHT22;5805;51.542;7.230;2023-04-15T10:21:38;14.00;99.90
11497;DHT22;5805;51.542;7.230;2023-04-15T10:24:05;14.30;99.90
11497;DHT22;5805;51.542;7.230;2023-04-15T10:26:31;14.20;99.90
11497;DHT22;5805;51.542;7.230;2023-04-15T10:28:57;13.90;99.90
11497;DHT22;5805;51.542;7.230;2023-04-15T10:31:23;13.80;99.90
11497;DHT22;5805;51.542;7.230;2023-04-15T10:33:51;13.80;99.90
11497;DHT22;5805;51.542;7.230;2023-04-15T10:36:18;13.80;99.90
11497;DHT22;5805;51.542;7.230;2023-04-15T10:38:44;13.80;99.90
11497;DHT22;5805;51.542;7.230;2023-04-15T10:41:16;13.80;99.90
11497;DHT22;5805;51.542;7.230;2023-04-15T10:43:49;13.70;99.90
11497;DHT22;5805;51.542;7.230;2023-04-15T10:46:18;13.70;99.90
11497;DHT22;5805;51.542;7.230;2023-04-15T10:48:47;13.60;99.90
11497;DHT22;5805;51.542;7.230;2023-04-15T10:51:14;13.60;99.90
11497;DHT22;5805;51.542;7.230;2023-04-15T10:53:41;13.60;99.90
11497;DHT22;5805;51.542;7.230;2023-04-15T10:56:07;13.50;99.90
11497;DHT22;5805;51.542;7.230;2023-04-15T10:58:40;13.50;99.90
11497;DHT22;5805;51.542;7.230;2023-04-15T11:01:06;13.50;99.90
11497;DHT22;5805;51.542;7.230;2023-04-15T11:03:37;13.90;99.90
11497;DHT22;5805;51.542;7.230;2023-04-15T11:06:03;13.60;99.90
11497;DHT22;5805;51.542;7.230;2023-04-15T11:08:58;13.40;99.90
11497;DHT22;5805;51.542;7.230;2023-04-15T11:12:06;13.40;99.90
11497;DHT22;5805;51.542;7.230;2023-04-15T11:14:32;13.40;99.90
11497;DHT22;5805;51.542;7.230;2023-04-15T11:16:58;13.30;99.90
11497;DHT22;5805;51.542;7.230;2023-04-15T11:19:23;13.30;99.90
11497;DHT22;5805;51.542;7.230;2023-04-15T11:21:49;13.20;99.90
11497;DHT22;5805;51.542;7.230;2023-04-15T11:24:24;13.20;99.90
11497;DHT22;5805;51.542;7.230;2023-04-15T11:26:50;13.00;99.90
11497;DHT22;5805;51.542;7.230;2023-04-15T11:29:17;13.00;99.90
11497;DHT22;5805;51.542;7.230;2023-04-15T11:31:46;13.10;99.90
11497;DHT22;5805;51.542;7.230;2023-04-15T11:34:12;13.30;99.90
11497;DHT22;5805;51.542;7.230;2023-04-15T11:36:46;13.40;99.90
11497;DHT22;5805;51.542;7.230;2023-04-15T11:39:12;13.50;99.90
11497;DHT22;5805;51.542;7.230;2023-04-15T11:41:40;13.50;99.90
11497;DHT22;5805;51.542;7.230;2023-04-15T11:44:15;13.20;99.90
11497;DHT22;5805;51.542;7.230;2023-04-15T11:46:41;13.30;99.90
11497;DHT22;5805;51.542;7.230;2023-04-15T11:49:07;13.20;99.90
11497;DHT22;5805;51.542;7.230;2023-04-15T11:51:33;13.20;99.90
11497;DHT22;5805;51.542;7.230;2023-04-15T11:53:59;13.20;99.90
11497;DHT22;5805;51.542;7.230;2023-04-15T11:56:25;13.20;99.90
11497;DHT22;5805;51.542;7.230;2023-04-15T11:58:53;13.20;99.90
11497;DHT22;5805;51.542;7.230;2023-04-15T12:01:19;13.20;99.90
11497;DHT22;5805;51.542;7.230;2023-04-15T12:03:45;13.10;99.90
11497;DHT22;5805;51.542;7.230;2023-04-15T12:06:14;13.00;99.90
11497;DHT22;5805;51.542;7.230;2023-04-15T12:09:07;13.10;99.90
11497;DHT22;5805;51.542;7.230;2023-04-15T12:11:35;13.10;99.90
11497;DHT22;5805;51.542;7.230;2023-04-15T12:14:09;13.20;99.90
11497;DHT22;5805;51.542;7.230;2023-04-15T12:16:35;13.30;99.90
11497;DHT22;5805;51.542;7.230;2023-04-15T12:19:05;13.30;99.90
11497;DHT22;5805;51.542;7.230;2023-04-15T12:21:33;13.30;99.90
11497;DHT22;5805;51.542;7.230;2023-04-15T12:24:02;13.30;99.90
11497;DHT22;5805;51.542;7.230;2023-04-15T12:26:31;13.30;99.90
11497;DHT22;5805;51.542;7.230;2023-04-15T12:29:00;13.30;99.90
11497;DHT22;5805;51.542;7.230;2023-04-15T12:31:28;13.40;99.90
11497;DHT22;5805;51.542;7.230;2023-04-15T12:33:54;13.50;99.90
11497;DHT22;5805;51.542;7.230;2023-04-15T12:36:20;13.60;99.90
11497;DHT22;5805;51.542;7.230;2023-04-15T12:38:45;13.60;99.90
11497;DHT22;5805;51.542;7.230;2023-04-15T12:41:11;13.60;99.90
11497;DHT22;5805;51.542;7.230;2023-04-15T12:43:37;13.60;99.90
11497;DHT22;5805;51.542;7.230;2023-04-15T12:46:03;14.00;99.90
11497;DHT22;5805;51.542;7.230;2023-04-15T12:48:30;13.60;99.90
11497;DHT22;5805;51.542;7.230;2023-04-15T12:50:55;13.60;99.90
11497;DHT22;5805;51.542;7.230;2023-04-15T12:53:21;13.70;99.90
11497;DHT22;5805;51.542;7.230;2023-04-15T12:55:47;13.80;99.90
11497;DHT22;5805;51.542;7.230;2023-04-15T12:58:12;13.90;99.90
11497;DHT22;5805;51.542;7.230;2023-04-15T13:00:38;13.90;99.90
11497;DHT22;5805;51.542;7.230;2023-04-15T13:03:04;14.00;99.90
11497;DHT22;5805;51.542;7.230;2023-04-15T13:05:31;14.00;99.90
11497;DHT22;5805;51.542;7.230;2023-04-15T13:07:57;14.20;99.90
11497;DHT22;5805;51.542;7.230;2023-04-15T13:10:22;14.00;99.90
11497;DHT22;5805;51.542;7.230;2023-04-15T13:12:48;14.00;99.90
11497;DHT22;5805;51.542;7.230;2023-04-15T13:15:14;13.90;99.90
11497;DHT22;5805;51.542;7.230;2023-04-15T13:17:39;13.80;99.90
11497;DHT22;5805;51.542;7.230;2023-04-15T13:20:06;13.80;99.90
11497;DHT22;5805;51.542;7.230;2023-04-15T13:22:33;13.70;99.90
11497;DHT22;5805;51.542;7.230;2023-04-15T13:24:58;13.70;99.90
11497;DHT22;5805;51.542;7.230;2023-04-15T13:27:24;13.60;99.90
11497;DHT22;5805;51.542;7.230;2023-04-15T13:29:50;13.80;99.90
11497;DHT22;5805;51.542;7.230;2023-04-15T13:32:15;13.60;99.90
11497;DHT22;5805;51.542;7.230;2023-04-15T13:34:41;13.50;99.90
11497;DHT22;5805;51.542;7.230;2023-04-15T13:37:07;13.50;99.90
11497;DHT22;5805;51.542;7.230;2023-04-15T13:39:34;13.30;99.90
11497;DHT22;5805;51.542;7.230;2023-04-15T13:42:00;13.40;99.90
11497;DHT22;5805;51.542;7.230;2023-04-15T13:44:26;13.40;99.90
11497;DHT22;5805;51.542;7.230;2023-04-15T13:46:51;13.50;99.90
11497;DHT22;5805;51.542;7.230;2023-04-15T13:49:17;13.60;99.90
11497;DHT22;5805;51.542;7.230;2023-04-15T13:51:43;13.60;99.90
11497;DHT22;5805;51.542;7.230;2023-04-15T13:54:08;13.60;99.90
11497;DHT22;5805;51.542;7.230;2023-04-15T13:56:35;14.00;99.90
11497;DHT22;5805;51.542;7.230;2023-04-15T13:59:01;13.70;99.90
11497;DHT22;5805;51.542;7.230;2023-04-15T14:01:27;13.70;99.90
11497;DHT22;5805;51.542;7.230;2023-04-15T14:03:53;14.10;99.90
11497;DHT22;5805;51.542;7.230;2023-04-15T14:06:18;13.70;99.90
11497;DHT22;5805;51.542;7.230;2023-04-15T14:08:44;13.70;99.90
11497;DHT22;5805;51.542;7.230;2023-04-15T14:11:10;13.50;99.90
11497;DHT22;5805;51.542;7.230;2023-04-15T14:13:37;13.60;99.90
11497;DHT22;5805;51.542;7.230;2023-04-15T14:16:03;13.50;99.90
11497;DHT22;5805;51.542;7.230;2023-04-15T14:18:29;13.60;99.90
11497;DHT22;5805;51.542;7.230;2023-04-15T14:20:55;13.60;99.90
11497;DHT22;5805;51.542;7.230;2023-04-15T14:23:22;13.50;99.90
11497;DHT22;5805;51.542;7.230;2023-04-15T14:25:48;13.70;99.90
11497;DHT22;5805;51.542;7.230;2023-04-15T14:28:14;13.50;99.90
11497;DHT22;5805;51.542;7.230;2023-04-15T14:30:41;13.50;99.90
11497;DHT22;5805;51.542;7.230;2023-04-15T14:33:07;13.40;99.90
11497;DHT22;5805;51.542;7.230;2023-04-15T14:35:33;13.40;99.90
11497;DHT22;5805;51.542;7.230;2023-04-15T14:37:59;13.30;99.90
11497;DHT22;5805;51.542;7.230;2023-04-15T14:40:24;13.20;99.90
11497;DHT22;5805;51.542;7.230;2023-04-15T14:42:50;13.10;99.90
11497;DHT22;5805;51.542;7.230;2023-04-15T14:45:16;13.20;99.90
11497;DHT22;5805;51.542;7.230;2023-04-15T14:47:43;13.20;99.90
11497;DHT22;5805;51.542;7.230;2023-04-15T14:50:09;13.10;99.90
11497;DHT22;5805;51.542;7.230;2023-04-15T14:52:35;13.10;99.90
11497;DHT22;5805;51.542;7.230;2023-04-15T14:55:00;13.10;99.90
11497;DHT22;5805;51.542;7.230;2023-04-15T14:57:26;13.10;99.90
11497;DHT22;5805;51.542;7.230;2023-04-15T14:59:52;13.00;99.90
11497;DHT22;5805;51.542;7.230;2023-04-15T15:02:17;13.10;99.90
11497;DHT22;5805;51.542;7.230;2023-04-15T15:04:45;13.10;99.90
11497;DHT22;5805;51.542;7.230;2023-04-15T15:07:10;13.00;99.90
11497;DHT22;5805;51.542;7.230;2023-04-15T15:09:36;13.00;99.90
11497;DHT22;5805;51.542;7.230;2023-04-15T15:12:02;13.00;99.90
11497;DHT22;5805;51.542;7.230;2023-04-15T15:14:27;12.90;99.90
11497;DHT22;5805;51.542;7.230;2023-04-15T15:16:53;12.90;99.90
11497;DHT22;5805;51.542;7.230;2023-04-15T15:19:19;12.90;99.90
11497;DHT22;5805;51.542;7.230;2023-04-15T15:21:46;12.90;99.90
11497;DHT22;5805;51.542;7.230;2023-04-15T15:24:11;13.00;99.90
11497;DHT22;5805;51.542;7.230;2023-04-15T15:26:37;12.70;99.90
11497;DHT22;5805;51.542;7.230;2023-04-15T15:29:03;12.70;99.90
11497;DHT22;5805;51.542;7.230;2023-04-15T15:31:29;12.70;99.90
11497;DHT22;5805;51.542;7.230;2023-04-15T15:33:54;12.70;99.90
11497;DHT22;5805;51.542;7.230;2023-04-15T15:36:20;12.70;99.90
11497;DHT22;5805;51.542;7.230;2023-04-15T15:38:47;12.70;99.90
11497;DHT22;5805;51.542;7.230;2023-04-15T15:41:13;12.60;99.90
11497;DHT22;5805;51.542;7.230;2023-04-15T15:43:38;12.50;99.90
11497;DHT22;5805;51.542;7.230;2023-04-15T15:46:04;12.50;99.90
11497;DHT22;5805;51.542;7.230;2023-04-15T15:48:30;12.50;99.90